Salem Township, Maine
Current Conditions -  °F | °C
As of 1:15 PM on Thursday 23 Oct 2014 (Local Time) from KWVL Reporting Station
Overcast Overcast  
Wind Chill:   Ceiling: 800
Heat Index:   Visibility: 4mi
Dew Point:   Wind: 20mph
Humidity: 82%   Direction: 30°NNE
Pressure: 29.81"   Gusts: 26mph
Location:  44.8564°N, 70.2117°W
Report Text: KWVL 231715Z 03017G23KT 4SM BKN008 OVC013 09/06 A2981 RMK AO1
Loading
Personal Weather Stations






























Interactive Weather Map
Tropical Storm Tracking
New forecast layout! Learn more

10-Day Weather Forecast

Advertisements
Track Severe Weather on mobile